Time;durP1;ratioP1;P1;durP2;ratioP2;P2;SDS_P1;SDS_P2;PMS_P1;PMS_P2;Temp;Humidity;BMP_temperature;BMP_pressure;BME280_temperature;BME280_humidity;BME280_pressure;Samples;Min_cycle;Max_cycle;Signal;HPM_P1;HPM_P2
2021/08/13 00:00:16;;;;;;;12.18;10.88;;;;;;;16.87;87.66;101237.53;696071;28;1646;-55
2021/08/13 00:00:36;;;;;;;12.63;10.30;;;;;;;16.88;87.68;101236.66;697221;28;1864;-55
2021/08/13 00:00:57;;;;;;;12.00;10.27;;;;;;;16.85;87.84;101240.22;694928;28;4380;-53
2021/08/13 00:01:17;;;;;;;11.25;10.07;;;;;;;16.88;87.38;101241.94;695507;28;1218;-55
2021/08/13 00:01:38;;;;;;;10.97;9.87;;;;;;;16.95;86.90;101235.63;697077;28;964;-56
2021/08/13 00:01:58;;;;;;;10.88;9.65;;;;;;;17.09;86.07;101250.31;696503;28;932;-55
2021/08/13 00:02:18;;;;;;;12.87;9.87;;;;;;;17.15;86.05;101243.09;696180;28;1150;-56
2021/08/13 00:02:39;;;;;;;13.17;10.53;;;;;;;17.12;86.83;101247.59;694184;28;4397;-54
2021/08/13 00:02:59;;;;;;;13.63;10.47;;;;;;;17.07;87.16;101246.81;693940;28;1433;-55
2021/08/13 00:03:20;;;;;;;11.60;10.27;;;;;;;17.04;86.92;101245.13;694167;28;1482;-57
2021/08/13 00:03:40;;;;;;;13.23;10.45;;;;;;;17.02;86.99;101239.88;693539;28;4580;-55
2021/08/13 00:04:01;;;;;;;11.98;10.50;;;;;;;17.01;87.09;101248.69;693309;28;1119;-55
2021/08/13 00:04:22;;;;;;;11.50;10.30;;;;;;;16.98;87.44;101245.25;693296;28;1393;-57
2021/08/13 00:04:43;;;;;;;11.32;10.13;;;;;;;16.96;87.60;101247.94;696383;28;1424;-54
2021/08/13 00:05:04;;;;;;;11.57;10.38;;;;;;;16.91;87.70;101239.25;697181;28;1581;-56
2021/08/13 00:05:24;;;;;;;12.43;10.80;;;;;;;16.86;87.87;101246.34;695822;28;1493;-56
2021/08/13 00:05:45;;;;;;;12.60;10.75;;;;;;;16.82;88.25;101249.97;695888;28;4521;-56
2021/08/13 00:06:05;;;;;;;12.13;10.57;;;;;;;16.80;88.01;101247.38;696081;28;1282;-54
2021/08/13 00:06:25;;;;;;;11.65;10.15;;;;;;;16.80;87.94;101241.22;696233;28;1845;-53
2021/08/13 00:06:46;;;;;;;12.17;10.80;;;;;;;16.83;87.73;101243.78;697328;28;4406;-54
2021/08/13 00:07:07;;;;;;;11.90;10.30;;;;;;;16.85;87.73;101239.38;696804;28;1454;-56
2021/08/13 00:07:27;;;;;;;12.27;10.15;;;;;;;16.87;87.32;101242.81;696183;28;1697;-56
2021/08/13 00:07:47;;;;;;;12.95;10.32;;;;;;;16.90;87.02;101241.94;696404;28;1604;-57
2021/08/13 00:08:09;;;;;;;12.43;10.40;;;;;;;16.94;86.77;101241.81;696915;28;1321;-55
2021/08/13 00:08:29;;;;;;;13.02;10.65;;;;;;;16.90;87.42;101237.50;696879;28;4042;-56
2021/08/13 00:08:49;;;;;;;12.95;10.45;;;;;;;16.87;87.58;101242.81;695776;28;4570;-56
2021/08/13 00:09:10;;;;;;;12.17;10.40;;;;;;;16.80;88.07;101243.88;695926;28;1919;-55
2021/08/13 00:09:30;;;;;;;12.40;10.60;;;;;;;16.75;88.12;101237.81;696888;28;2147;-56
2021/08/13 00:09:51;;;;;;;11.77;10.57;;;;;;;16.71;88.35;101241.41;695662;28;4551;-56
2021/08/13 00:10:11;;;;;;;12.20;10.83;;;;;;;16.66;88.70;101237.09;697364;28;1337;-56
2021/08/13 00:10:32;;;;;;;13.10;10.87;;;;;;;16.64;89.08;101238.91;696143;28;1678;-56
2021/08/13 00:10:52;;;;;;;13.00;11.02;;;;;;;16.60;89.00;101239.88;697098;28;1548;-56
2021/08/13 00:11:12;;;;;;;12.73;11.30;;;;;;;16.56;89.40;101238.19;697042;28;1664;-55
2021/08/13 00:11:35;;;;;;;12.35;10.88;;;;;;;16.57;89.47;101239.91;696272;28;4353;-52
2021/08/13 00:11:56;;;;;;;11.70;10.50;;;;;;;16.57;89.41;101245.19;696478;28;1683;-55
2021/08/13 00:12:17;;;;;;;11.77;10.57;;;;;;;16.58;89.19;101239.03;693826;28;1594;-54
2021/08/13 00:12:37;;;;;;;11.63;10.43;;;;;;;16.64;88.43;101245.94;693573;28;1378;-55
2021/08/13 00:12:58;;;;;;;12.13;10.40;;;;;;;16.70;88.04;101243.19;694315;28;4349;-56
2021/08/13 00:13:19;;;;;;;11.90;10.35;;;;;;;16.79;87.59;101236.84;693400;28;1049;-55
2021/08/13 00:13:39;;;;;;;11.93;10.23;;;;;;;16.87;87.03;101247.25;694922;28;1221;-56
2021/08/13 00:13:59;;;;;;;11.60;9.93;;;;;;;16.90;86.91;101242.78;693228;28;1337;-55
2021/08/13 00:14:20;;;;;;;11.52;10.15;;;;;;;16.90;86.96;101241.94;694933;28;3750;-56
2021/08/13 00:14:40;;;;;;;12.77;10.20;;;;;;;16.91;86.64;101239.25;694194;28;3607;-57
2021/08/13 00:15:00;;;;;;;11.37;9.77;;;;;;;16.98;86.02;101247.91;694433;28;1849;-53
2021/08/13 00:15:21;;;;;;;11.20;9.67;;;;;;;17.00;86.32;101246.09;694245;28;2531;-57
2021/08/13 00:15:41;;;;;;;11.37;9.93;;;;;;;17.00;86.27;101246.97;696943;28;4500;-55
2021/08/13 00:16:02;;;;;;;11.27;9.90;;;;;;;17.00;86.46;101249.63;697218;28;910;-55
2021/08/13 00:16:22;;;;;;;12.10;9.43;;;;;;;17.00;86.56;101246.09;697276;28;1470;-56
2021/08/13 00:16:42;;;;;;;11.50;10.07;;;;;;;16.99;86.36;101247.88;695973;28;1013;-56
2021/08/13 00:17:04;;;;;;;11.43;10.07;;;;;;;16.96;87.14;101255.88;696612;28;909;-57
2021/08/13 00:17:24;;;;;;;12.07;10.32;;;;;;;16.92;86.70;101243.63;696557;28;3928;-54
2021/08/13 00:17:44;;;;;;;12.17;10.43;;;;;;;16.93;86.86;101258.56;696604;28;4774;-55
2021/08/13 00:18:05;;;;;;;10.93;9.83;;;;;;;16.91;87.55;101254.22;695589;28;1322;-56
2021/08/13 00:18:25;;;;;;;11.55;10.07;;;;;;;16.85;87.66;101250.78;696183;28;1678;-55
2021/08/13 00:18:46;;;;;;;12.47;10.10;;;;;;;16.82;87.53;101255.25;692262;28;4664;-55
2021/08/13 00:19:07;;;;;;;12.73;10.30;;;;;;;16.87;86.66;101250.75;690979;28;1113;-56
2021/08/13 00:19:28;;;;;;;11.57;10.02;;;;;;;16.92;86.49;101256.84;691562;28;985;-56
2021/08/13 00:19:49;;;;;;;11.40;9.90;;;;;;;16.92;86.78;101259.47;691397;28;957;-55
2021/08/13 00:20:11;;;;;;;11.32;10.13;;;;;;;16.89;87.26;101262.19;692056;28;1561;-55
2021/08/13 00:20:34;;;;;;;13.40;10.77;;;;;;;16.87;87.34;101257.81;691685;28;4624;-55
2021/08/13 00:20:55;;;;;;;12.35;10.23;;;;;;;16.87;87.59;101253.38;693458;28;1484;-56
2021/08/13 00:21:15;;;;;;;13.07;10.25;;;;;;;16.84;88.15;101258.75;693306;28;1735;-55
2021/08/13 00:21:36;;;;;;;11.93;10.55;;;;;;;16.82;87.96;101258.78;694395;28;1484;-55
2021/08/13 00:21:56;;;;;;;13.10;10.30;;;;;;;16.78;87.96;101261.50;696214;28;4522;-54
2021/08/13 00:22:17;;;;;;;12.98;10.05;;;;;;;16.75;88.08;101261.56;697095;28;989;-56
2021/08/13 00:22:37;;;;;;;12.67;10.20;;;;;;;16.75;87.80;101265.06;696906;28;1918;-56
2021/08/13 00:22:57;;;;;;;11.70;10.38;;;;;;;16.72;87.96;101253.72;696428;28;1417;-53
2021/08/13 00:23:18;;;;;;;12.80;10.50;;;;;;;16.67;88.09;101259.97;697197;28;4169;-55
2021/08/13 00:23:38;;;;;;;13.43;10.63;;;;;;;16.61;88.65;101261.84;696641;28;4534;-55
2021/08/13 00:23:59;;;;;;;13.13;10.80;;;;;;;16.60;88.81;101263.63;696308;28;1553;-56
2021/08/13 00:24:19;;;;;;;13.32;10.82;;;;;;;16.56;88.77;101259.31;695625;28;1504;-57
2021/08/13 00:24:40;;;;;;;12.27;10.70;;;;;;;16.51;89.16;101271.72;695980;28;4576;-54
2021/08/13 00:25:00;;;;;;;12.40;10.98;;;;;;;16.47;89.36;101268.25;694848;28;1335;-54
2021/08/13 00:25:21;;;;;;;12.53;11.23;;;;;;;16.44;89.68;101264.84;695227;28;2134;-54
2021/08/13 00:25:41;;;;;;;12.48;11.13;;;;;;;16.42;89.78;101266.63;695699;28;1470;-56
2021/08/13 00:26:02;;;;;;;13.63;11.30;;;;;;;16.41;89.67;101268.41;694370;28;1369;-55
2021/08/13 00:26:23;;;;;;;12.93;10.88;;;;;;;16.42;89.69;101274.53;695012;28;4321;-56
2021/08/13 00:26:43;;;;;;;13.30;10.68;;;;;;;16.41;89.52;101267.53;694087;28;1431;-55
2021/08/13 00:27:04;;;;;;;12.73;11.10;;;;;;;16.41;89.83;101272.81;691795;28;1724;-51
2021/08/13 00:27:24;;;;;;;12.10;10.80;;;;;;;16.39;89.74;101270.19;692666;28;1028;-54
2021/08/13 00:27:45;;;;;;;12.90;11.00;;;;;;;16.38;89.68;101268.47;692117;28;4428;-54
2021/08/13 00:28:05;;;;;;;13.57;11.00;;;;;;;16.41;89.20;101276.31;694111;28;1509;-56
2021/08/13 00:28:26;;;;;;;11.70;10.18;;;;;;;16.45;89.07;101267.44;694054;28;1620;-57
2021/08/13 00:28:46;;;;;;;12.13;10.47;;;;;;;16.48;88.91;101272.66;692275;28;1444;-57
2021/08/13 00:29:07;;;;;;;11.95;10.57;;;;;;;16.49;89.12;101278.78;691756;28;1699;-56
2021/08/13 00:29:27;;;;;;;12.80;10.57;;;;;;;16.51;88.45;101277.00;689180;28;4311;-55
2021/08/13 00:29:47;;;;;;;12.40;10.53;;;;;;;16.56;88.15;101276.91;687119;28;1702;-51
2021/08/13 00:30:09;;;;;;;12.85;10.90;;;;;;;16.58;87.76;101278.63;683926;28;1511;-54
2021/08/13 00:30:31;;;;;;;12.68;10.20;;;;;;;16.57;88.53;101276.88;684072;28;1633;-56
2021/08/13 00:30:51;;;;;;;11.80;10.60;;;;;;;16.52;88.70;101276.13;685453;28;4656;-56
2021/08/13 00:31:14;;;;;;;12.60;11.27;;;;;;;16.50;88.72;101269.97;686702;28;1130;-55
2021/08/13 00:31:35;;;;;;;12.73;10.95;;;;;;;16.50;88.58;101284.06;686932;28;1268;-56
2021/08/13 00:31:56;;;;;;;12.05;10.60;;;;;;;16.51;88.95;101282.28;688008;28;1485;-54
2021/08/13 00:32:17;;;;;;;12.90;10.55;;;;;;;16.52;88.89;101276.13;688193;28;3930;-54
2021/08/13 00:32:38;;;;;;;12.07;10.70;;;;;;;16.50;89.24;101280.53;684890;28;4409;-55
2021/08/13 00:32:58;;;;;;;12.50;10.88;;;;;;;16.48;89.44;101277.06;684503;28;1677;-57
2021/08/13 00:33:19;;;;;;;12.50;11.03;;;;;;;16.47;89.44;101275.31;687021;28;1618;-57
2021/08/13 00:33:40;;;;;;;13.80;11.15;;;;;;;16.44;89.74;101273.63;689302;28;4414;-56
2021/08/13 00:34:00;;;;;;;13.30;11.15;;;;;;;16.44;89.41;101278.03;681461;29;1433;-55
2021/08/13 00:34:21;;;;;;;12.05;10.82;;;;;;;16.41;89.46;101278.09;679693;29;1347;-55
2021/08/13 00:34:44;;;;;;;12.98;11.00;;;;;;;16.41;89.12;101276.31;679847;29;1608;-56
2021/08/13 00:35:06;;;;;;;12.63;11.27;;;;;;;16.45;88.53;101275.34;680231;28;3588;-55
2021/08/13 00:35:27;;;;;;;13.45;10.80;;;;;;;16.49;88.30;101276.16;681108;28;4204;-55
2021/08/13 00:35:49;;;;;;;12.25;10.85;;;;;;;16.50;88.55;101272.63;684256;28;1619;-55
2021/08/13 00:36:09;;;;;;;12.43;11.10;;;;;;;16.50;89.14;101268.22;684024;28;1486;-55
2021/08/13 00:36:30;;;;;;;12.95;10.88;;;;;;;16.46;89.02;101268.31;683893;28;1562;-55
2021/08/13 00:36:51;;;;;;;12.48;10.57;;;;;;;16.42;88.91;101271.91;688395;28;4769;-56
2021/08/13 00:37:12;;;;;;;12.50;10.80;;;;;;;16.40;89.03;101268.44;686864;28;1501;-55
2021/08/13 00:37:32;;;;;;;11.97;10.77;;;;;;;16.40;88.67;101271.06;689671;28;1520;-54
2021/08/13 00:37:53;;;;;;;11.90;10.68;;;;;;;16.40;89.06;101274.56;687102;28;1286;-56
2021/08/13 00:38:14;;;;;;;11.70;10.50;;;;;;;16.41;88.95;101276.31;681121;28;4352;-57
2021/08/13 00:38:35;;;;;;;11.65;10.40;;;;;;;16.44;88.79;101272.75;684011;28;1328;-54
2021/08/13 00:38:56;;;;;;;12.25;10.82;;;;;;;16.46;88.77;101263.03;684642;28;1908;-54
2021/08/13 00:39:16;;;;;;;14.20;10.68;;;;;;;16.47;89.19;101270.03;684227;28;1388;-56
2021/08/13 00:39:37;;;;;;;14.18;10.65;;;;;;;16.46;88.82;101268.31;681278;28;1236;-56
2021/08/13 00:39:58;;;;;;;12.17;10.27;;;;;;;16.46;88.98;101276.22;687156;28;4368;-56
2021/08/13 00:40:19;;;;;;;12.80;10.23;;;;;;;16.42;89.10;101277.16;687068;28;1177;-53
2021/08/13 00:40:39;;;;;;;11.80;10.25;;;;;;;16.37;89.15;101266.72;687112;28;1386;-55
2021/08/13 00:41:03;;;;;;;11.77;10.55;;;;;;;16.34;89.40;101270.28;686998;28;1563;-57
2021/08/13 00:41:23;;;;;;;12.20;10.90;;;;;;;16.29;89.74;101264.22;687191;28;4795;-57
2021/08/13 00:41:45;;;;;;;12.38;11.07;;;;;;;16.28;89.74;101269.53;684204;28;1708;-53
2021/08/13 00:42:05;;;;;;;12.33;11.00;;;;;;;16.28;89.55;101270.41;686599;28;1687;-56
2021/08/13 00:42:30;;;;;;;12.02;10.70;;;;;;;16.27;89.52;101268.66;688088;28;1921;-56
2021/08/13 00:42:52;;;;;;;12.93;10.70;;;;;;;16.25;89.49;101266.94;689808;28;4638;-55
2021/08/13 00:43:12;;;;;;;11.82;10.60;;;;;;;16.26;89.12;101261.66;688901;28;1321;-55
2021/08/13 00:43:33;;;;;;;11.70;10.50;;;;;;;16.31;88.81;101270.34;687790;28;1401;-55
2021/08/13 00:43:54;;;;;;;12.50;10.73;;;;;;;16.36;88.70;101266.75;689068;28;1333;-56
2021/08/13 00:44:15;;;;;;;14.35;10.68;;;;;;;16.38;88.63;101267.56;689696;28;4441;-55
2021/08/13 00:44:37;;;;;;;11.93;10.50;;;;;;;16.39;88.52;101267.53;691167;28;1486;-55
2021/08/13 00:44:58;;;;;;;12.70;10.52;;;;;;;16.43;88.28;101263.09;691255;28;1519;-56
2021/08/13 00:45:18;;;;;;;11.43;10.20;;;;;;;16.45;88.10;101261.31;691936;28;1701;-54
2021/08/13 00:45:51;;;;;;;11.27;10.18;;;;;;;16.47;88.05;101260.34;691088;28;4409;-55
2021/08/13 00:46:15;;;;;;;11.77;10.55;;;;;;;16.49;87.86;101263.84;689423;28;2128;-57
2021/08/13 00:46:58;;;;;;;11.52;10.30;;;;;;;16.47;88.05;101268.25;681175;29;3689;-55
2021/08/13 00:47:37;;;;;;;12.40;10.23;;;;;;;16.49;87.90;101263.84;681851;28;1545;-56
2021/08/13 00:48:04;;;;;;;11.98;10.68;;;;;;;16.46;88.53;101268.31;687127;28;1572;-56
2021/08/13 00:49:00;;;;;;;11.90;10.60;;;;;;;16.44;88.56;101276.25;683791;28;6055;-56
2021/08/13 00:49:34;;;;;;;11.35;9.90;;;;;;;16.47;88.21;101268.25;689772;28;1523;-56
2021/08/13 00:50:04;;;;;;;10.57;9.30;;;;;;;16.54;87.69;101273.44;687877;28;3709;-57
2021/08/13 00:50:28;;;;;;;12.07;10.05;;;;;;;16.55;87.69;101275.19;686823;28;1587;-52
2021/08/13 00:50:51;;;;;;;11.38;10.13;;;;;;;16.52;88.17;101266.41;685776;28;1566;-55
2021/08/13 00:51:13;;;;;;;12.18;10.90;;;;;;;16.49;88.30;101268.22;687048;28;1468;-53
2021/08/13 00:51:35;;;;;;;11.30;10.10;;;;;;;16.49;87.83;101276.16;689522;28;1672;-56
2021/08/13 00:52:00;;;;;;;12.18;10.55;;;;;;;16.47;88.57;101270.03;688746;28;4986;-56
2021/08/13 00:52:20;;;;;;;12.40;10.83;;;;;;;16.41;88.60;101270.19;686676;28;1388;-55
2021/08/13 00:52:42;;;;;;;11.70;10.50;;;;;;;16.36;88.79;101272.03;685548;28;1583;-52
2021/08/13 00:53:06;;;;;;;12.55;10.73;;;;;;;16.27;88.83;101271.31;684639;28;3855;-55
2021/08/13 00:53:27;;;;;;;12.68;11.00;;;;;;;16.25;89.09;101281.00;685107;28;1336;-56
2021/08/13 00:53:48;;;;;;;13.30;11.10;;;;;;;16.23;89.15;101274.03;684507;28;1522;-55
2021/08/13 00:54:10;;;;;;;12.52;10.70;;;;;;;16.20;89.18;101272.31;684455;28;2371;-56
2021/08/13 00:54:36;;;;;;;12.43;10.57;;;;;;;16.21;89.34;101271.41;684303;28;1669;-56
2021/08/13 00:54:58;;;;;;;12.38;10.57;;;;;;;16.24;88.60;101274.00;681448;28;4992;-55
2021/08/13 00:55:34;;;;;;;12.90;10.85;;;;;;;16.31;89.11;101274.72;682334;28;1583;-54
2021/08/13 00:55:58;;;;;;;12.30;10.95;;;;;;;16.31;88.97;101278.25;683473;28;4414;-54
2021/08/13 00:56:34;;;;;;;11.93;10.65;;;;;;;16.36;88.69;101277.31;688686;28;1682;-56
2021/08/13 00:57:33;;;;;;;12.02;10.70;;;;;;;16.29;89.38;101273.91;684186;28;974;-56
2021/08/13 00:58:15;;;;;;;12.20;10.70;;;;;;;16.26;89.14;101277.47;693632;28;5095;-55
2021/08/13 00:58:35;;;;;;;12.02;10.73;;;;;;;16.30;88.96;101273.88;690591;28;1222;-55
2021/08/13 00:59:19;;;;;;;13.15;10.45;;;;;;;16.35;88.44;101276.41;688895;28;4224;-55
2021/08/13 00:59:48;;;;;;;12.32;10.35;;;;;;;16.35;88.48;101281.69;689206;28;1242;-52
2021/08/13 01:00:20;;;;;;;12.68;10.90;;;;;;;16.37;88.20;101277.28;688666;28;1378;-55
2021/08/13 01:00:44;;;;;;;11.73;10.25;;;;;;;16.39;88.14;101272.81;688218;28;4470;-51
2021/08/13 01:01:05;;;;;;;11.80;10.45;;;;;;;16.43;87.65;101276.28;688749;28;1256;-56
2021/08/13 01:01:25;;;;;;;11.50;10.30;;;;;;;16.46;87.50;101279.75;688363;28;1372;-55
2021/08/13 01:01:46;;;;;;;11.20;10.00;;;;;;;16.50;87.34;101273.50;686232;28;1010;-56
2021/08/13 01:02:08;;;;;;;11.43;10.20;;;;;;;16.52;87.16;101273.47;680167;28;4096;-54
2021/08/13 01:02:29;;;;;;;11.15;9.55;;;;;;;16.63;86.44;101275.91;680994;29;1978;-55
2021/08/13 01:03:09;;;;;;;10.98;9.70;;;;;;;16.83;85.71;101271.06;684153;28;1105;-54
2021/08/13 01:03:33;;;;;;;11.15;9.65;;;;;;;16.87;85.84;101273.66;683821;28;1460;-56
2021/08/13 01:03:58;;;;;;;10.85;9.45;;;;;;;16.89;85.47;101275.41;687503;28;4587;-56
2021/08/13 01:04:20;;;;;;;11.65;10.32;;;;;;;16.83;86.09;101275.47;689755;28;1280;-56
2021/08/13 01:04:42;;;;;;;12.13;10.70;;;;;;;16.77;86.15;101276.47;689707;28;1282;-56
2021/08/13 01:05:12;;;;;;;13.07;10.48;;;;;;;16.68;86.96;101276.66;689680;28;3058;-56
2021/08/13 01:05:32;;;;;;;11.43;10.10;;;;;;;16.60;87.45;101275.94;687753;28;1254;-55
2021/08/13 01:05:54;;;;;;;11.63;10.07;;;;;;;16.55;87.79;101273.41;687638;28;1962;-53
2021/08/13 01:06:17;;;;;;;11.77;10.43;;;;;;;16.52;87.74;101279.59;686409;28;1447;-55
2021/08/13 01:06:37;;;;;;;11.60;10.32;;;;;;;16.50;88.00;101275.25;686732;28;1528;-55
2021/08/13 01:06:58;;;;;;;11.15;10.05;;;;;;;16.48;88.07;101277.06;688188;28;5406;-54
2021/08/13 01:07:20;;;;;;;11.30;10.10;;;;;;;16.46;87.97;101274.47;685120;28;1546;-54
2021/08/13 01:07:40;;;;;;;11.38;10.18;;;;;;;16.47;88.01;101277.97;684708;28;1229;-53
2021/08/13 01:08:01;;;;;;;11.90;10.60;;;;;;;16.46;88.03;101281.50;683854;28;3953;-56
2021/08/13 01:08:23;;;;;;;12.02;10.73;;;;;;;16.46;88.24;101277.09;681063;28;1253;-54
2021/08/13 01:08:45;;;;;;;12.90;10.80;;;;;;;16.45;88.40;101277.13;684845;28;1490;-53
2021/08/13 01:09:08;;;;;;;11.65;9.90;;;;;;;16.41;89.09;101280.75;684696;28;1726;-55
2021/08/13 01:09:29;;;;;;;11.77;10.30;;;;;;;16.40;89.25;101279.84;684938;28;1475;-56
2021/08/13 01:09:51;;;;;;;12.13;10.90;;;;;;;16.38;89.26;101280.78;684860;28;5508;-54
2021/08/13 01:10:13;;;;;;;12.27;10.70;;;;;;;16.34;88.91;101274.69;686663;28;1343;-55
2021/08/13 01:10:52;;;;;;;12.88;10.27;;;;;;;16.36;88.89;101274.66;685799;28;1460;-56
2021/08/13 01:11:31;;;;;;;12.80;10.63;;;;;;;16.31;89.30;101275.63;687497;28;4040;-55
2021/08/13 01:12:00;;;;;;;12.02;10.82;;;;;;;16.29;89.40;101277.41;684653;28;1538;-55
2021/08/13 01:12:30;;;;;;;12.75;11.15;;;;;;;16.24;89.43;101271.38;684794;28;1483;-56
2021/08/13 01:13:13;;;;;;;13.07;10.52;;;;;;;16.27;89.17;101268.66;683455;28;4555;-53
2021/08/13 01:13:58;;;;;;;11.77;10.43;;;;;;;16.29;89.07;101269.50;683031;28;1431;-55
2021/08/13 01:14:29;;;;;;;11.80;10.40;;;;;;;16.35;88.02;101271.13;684963;28;1670;-54
2021/08/13 01:14:53;;;;;;;11.25;9.65;;;;;;;16.42;87.60;101267.50;686360;28;1473;-55
2021/08/13 01:15:15;;;;;;;11.70;9.85;;;;;;;16.43;87.79;101265.72;684001;28;1276;-55
2021/08/13 01:15:44;;;;;;;11.65;10.10;;;;;;;16.42;88.14;101266.63;683878;28;4670;-55
2021/08/13 01:16:05;;;;;;;11.52;10.35;;;;;;;16.40;88.24;101273.72;680967;28;1325;-56
2021/08/13 01:16:29;;;;;;;11.57;10.38;;;;;;;16.40;88.12;101268.44;680957;28;1627;-56
2021/08/13 01:16:52;;;;;;;10.68;9.50;;;;;;;16.40;88.25;101273.72;680604;28;4514;-55
2021/08/13 01:17:15;;;;;;;11.75;10.50;;;;;;;16.38;88.14;101267.56;682316;28;1760;-54
2021/08/13 01:17:41;;;;;;;12.98;10.30;;;;;;;16.36;88.50;101269.38;685742;28;2153;-54
2021/08/13 01:18:12;;;;;;;12.45;10.15;;;;;;;16.31;88.46;101265.06;685220;28;1571;-56
2021/08/13 01:18:41;;;;;;;12.20;9.95;;;;;;;16.33;88.67;101270.31;686120;28;1402;-56
2021/08/13 01:19:15;;;;;;;11.63;10.10;;;;;;;16.32;88.58;101266.81;686096;28;7401;-55
2021/08/13 01:20:10;;;;;;;12.52;10.43;;;;;;;16.32;89.04;101268.56;683756;28;4073;-56
2021/08/13 01:20:44;;;;;;;13.82;10.70;;;;;;;16.28;89.04;101266.88;689146;28;1681;-54
2021/08/13 01:21:08;;;;;;;12.82;11.27;;;;;;;16.22;89.28;101265.22;689509;28;1552;-54
2021/08/13 01:21:48;;;;;;;13.40;10.88;;;;;;;16.19;89.27;101267.94;689110;28;1342;-56
2021/08/13 01:22:22;;;;;;;11.82;9.95;;;;;;;16.10;89.51;101265.47;685563;28;5148;-53
2021/08/13 01:22:50;;;;;;;11.57;10.38;;;;;;;16.08;89.50;101262.00;686704;28;4069;-55
2021/08/13 01:23:24;;;;;;;13.82;10.90;;;;;;;16.06;89.88;101269.06;688975;28;1535;-57
2021/08/13 01:23:48;;;;;;;12.35;10.85;;;;;;;16.04;89.45;101262.94;689442;28;1455;-53
2021/08/13 01:24:15;;;;;;;12.00;10.77;;;;;;;16.08;89.68;101264.63;690204;28;1204;-54
2021/08/13 01:24:41;;;;;;;11.65;10.45;;;;;;;16.08;89.72;101262.00;690161;28;1539;-56
2021/08/13 01:25:04;;;;;;;12.20;10.35;;;;;;;16.07;89.65;101266.38;688877;28;5104;-55
2021/08/13 01:25:31;;;;;;;11.60;10.50;;;;;;;16.03;89.80;101263.84;686300;28;1849;-54
2021/08/13 01:25:58;;;;;;;12.10;10.10;;;;;;;15.99;90.28;101266.53;685175;28;4270;-55
2021/08/13 01:26:21;;;;;;;12.13;10.90;;;;;;;15.95;90.08;101269.22;685936;28;1664;-56
2021/08/13 01:26:48;;;;;;;12.13;10.85;;;;;;;15.99;89.61;101263.91;686869;28;1237;-54
2021/08/13 01:27:12;;;;;;;11.98;10.77;;;;;;;16.05;89.39;101260.28;684487;28;1840;-53
2021/08/13 01:27:41;;;;;;;12.20;10.90;;;;;;;16.08;89.42;101262.00;683530;28;1634;-57
2021/08/13 01:28:28;;;;;;;12.02;10.35;;;;;;;16.14;88.73;101261.88;688491;28;5177;-56
2021/08/13 01:29:18;;;;;;;11.25;9.90;;;;;;;16.16;88.58;101262.72;686573;28;4598;-54
2021/08/13 01:29:49;;;;;;;11.75;10.50;;;;;;;16.21;88.48;101263.47;686411;28;1619;-56
2021/08/13 01:30:13;;;;;;;12.98;10.25;;;;;;;16.21;88.38;101262.63;689115;28;1601;-56
2021/08/13 01:30:40;;;;;;;11.52;10.18;;;;;;;16.24;88.35;101267.84;686638;28;4621;-55
2021/08/13 01:31:08;;;;;;;11.60;10.40;;;;;;;16.24;88.32;101273.13;684092;28;1822;-55
2021/08/13 01:31:42;;;;;;;12.63;10.38;;;;;;;16.24;88.38;101265.19;680151;29;3861;-53
2021/08/13 01:32:12;;;;;;;11.98;10.68;;;;;;;16.22;88.62;101269.66;679473;28;2075;-56
2021/08/13 01:32:45;;;;;;;11.88;10.55;;;;;;;16.19;89.09;101265.31;682847;28;1563;-55
2021/08/13 01:33:12;;;;;;;12.40;10.60;;;;;;;16.15;89.04;101261.84;687217;28;1606;-55
2021/08/13 01:33:39;;;;;;;11.73;9.98;;;;;;;16.11;89.08;101265.44;684351;28;2101;-56
2021/08/13 01:34:05;;;;;;;12.90;10.50;;;;;;;16.12;89.06;101263.69;686720;28;4886;-56
2021/08/13 01:34:30;;;;;;;13.30;10.77;;;;;;;16.13;89.18;101266.28;687592;28;4216;-53
2021/08/13 01:34:54;;;;;;;11.95;10.60;;;;;;;16.14;88.99;101264.50;688805;28;3365;-55
2021/08/13 01:35:23;;;;;;;11.85;10.60;;;;;;;16.12;89.50;101263.69;687738;28;1819;-55
2021/08/13 01:35:46;;;;;;;13.77;11.07;;;;;;;16.07;89.43;101261.09;685797;28;1893;-55
2021/08/13 01:36:10;;;;;;;13.50;11.30;;;;;;;16.07;89.43;101262.88;689372;28;1659;-57
2021/08/13 01:36:32;;;;;;;12.68;10.93;;;;;;;16.06;89.65;101269.94;684104;28;1533;-56
2021/08/13 01:36:57;;;;;;;13.70;10.70;;;;;;;16.05;89.77;101267.31;686405;28;4429;-56
2021/08/13 01:37:20;;;;;;;12.18;10.85;;;;;;;16.06;89.26;101266.41;686495;28;1444;-57
2021/08/13 01:37:56;;;;;;;11.38;10.18;;;;;;;16.14;88.91;101262.75;685877;28;4079;-56
2021/08/13 01:38:26;;;;;;;12.18;10.73;;;;;;;16.17;88.90;101264.44;686687;28;1808;-57
2021/08/13 01:38:53;;;;;;;12.05;10.75;;;;;;;16.17;89.16;101272.34;689931;28;1635;-57
2021/08/13 01:39:15;;;;;;;11.98;10.75;;;;;;;16.14;89.13;101267.13;690312;28;1394;-56
2021/08/13 01:39:37;;;;;;;11.52;10.32;;;;;;;16.13;89.46;101271.56;688486;28;2232;-52
2021/08/13 01:40:01;;;;;;;12.70;10.55;;;;;;;16.14;89.01;101268.03;686296;28;4614;-55
2021/08/13 01:40:23;;;;;;;12.60;10.82;;;;;;;16.16;88.83;101270.63;686687;28;3792;-56
2021/08/13 01:40:47;;;;;;;12.00;10.80;;;;;;;16.15;88.94;101269.75;687491;28;4426;-56
2021/08/13 01:41:12;;;;;;;12.15;10.95;;;;;;;16.16;89.09;101266.22;687772;28;1346;-56
2021/08/13 01:41:37;;;;;;;12.55;11.18;;;;;;;16.17;89.09;101267.06;686119;28;1336;-55
2021/08/13 01:42:02;;;;;;;11.70;10.50;;;;;;;16.17;89.03;101267.06;682022;28;1590;-57
2021/08/13 01:42:24;;;;;;;11.80;10.50;;;;;;;16.19;89.16;101270.56;683541;28;1673;-54
2021/08/13 01:42:46;;;;;;;11.75;10.32;;;;;;;16.19;88.86;101270.56;680959;29;4463;-55
2021/08/13 01:43:10;;;;;;;12.40;11.02;;;;;;;16.17;89.05;101267.06;680910;28;1609;-56
2021/08/13 01:43:32;;;;;;;11.90;10.75;;;;;;;16.12;89.58;101267.19;682291;28;4605;-56
2021/08/13 01:43:54;;;;;;;12.02;10.82;;;;;;;16.13;88.83;101268.94;682761;28;1573;-54
2021/08/13 01:44:16;;;;;;;12.18;10.85;;;;;;;16.14;89.43;101272.41;679175;28;1718;-56
2021/08/13 01:44:38;;;;;;;11.98;10.52;;;;;;;16.10;89.73;101270.72;677627;29;1354;-56
2021/08/13 01:45:02;;;;;;;13.18;11.05;;;;;;;16.10;89.36;101266.34;678550;29;2103;-57
2021/08/13 01:45:29;;;;;;;12.07;10.73;;;;;;;16.14;88.43;101262.75;679822;29;1401;-55
2021/08/13 01:45:51;;;;;;;11.57;10.07;;;;;;;16.17;88.48;101267.06;678410;29;4610;-56
2021/08/13 01:46:14;;;;;;;12.07;10.23;;;;;;;16.19;88.45;101267.09;678092;29;1523;-55
2021/08/13 01:46:46;;;;;;;12.32;10.43;;;;;;;16.16;88.72;101263.59;678557;29;4615;-57
2021/08/13 01:47:07;;;;;;;11.90;10.50;;;;;;;16.18;88.46;101263.56;678044;29;1730;-55
2021/08/13 01:47:29;;;;;;;12.00;10.33;;;;;;;16.21;88.10;101263.47;678851;29;1497;-52
2021/08/13 01:47:52;;;;;;;11.77;10.57;;;;;;;16.21;88.45;101263.47;678710;29;1350;-56
2021/08/13 01:48:14;;;;;;;12.00;10.35;;;;;;;16.19;88.65;101262.66;681257;28;1481;-57
2021/08/13 01:48:37;;;;;;;12.63;10.57;;;;;;;16.17;88.87;101264.44;683695;28;2325;-57
2021/08/13 01:48:58;;;;;;;13.02;10.73;;;;;;;16.16;88.72;101260.09;685771;28;4403;-57
2021/08/13 01:49:22;;;;;;;12.55;10.95;;;;;;;16.13;88.39;101260.13;686695;28;3825;-56
2021/08/13 01:49:44;;;;;;;12.23;10.48;;;;;;;16.13;88.57;101260.13;686800;28;4304;-54
2021/08/13 01:50:06;;;;;;;11.38;10.18;;;;;;;16.13;89.06;101260.13;690299;28;1659;-55
2021/08/13 01:50:27;;;;;;;12.23;10.95;;;;;;;16.15;88.72;101258.34;689608;28;1347;-54
2021/08/13 01:50:51;;;;;;;11.70;10.60;;;;;;;16.14;88.74;101257.47;688892;28;2120;-55
2021/08/13 01:51:17;;;;;;;11.57;10.40;;;;;;;16.12;89.11;101258.41;685567;28;1964;-55
2021/08/13 01:51:40;;;;;;;12.10;10.80;;;;;;;16.07;89.45;101253.19;685774;28;4703;-56
2021/08/13 01:52:03;;;;;;;12.05;10.85;;;;;;;16.05;89.52;101259.38;685863;28;1656;-55
2021/08/13 01:52:25;;;;;;;12.30;11.10;;;;;;;16.03;89.45;101253.28;685318;28;3954;-56